Time;durP1;ratioP1;P1;durP2;ratioP2;P2;SDS_P1;SDS_P2;PMS_P1;PMS_P2;Temp;Humidity;BMP_temperature;BMP_pressure;BME280_temperature;BME280_humidity;BME280_pressure;Samples;Min_cycle;Max_cycle;Signal;HPM_P1;HPM_P2
2022/08/27 00:01:17;;;;;;;2.07;1.00;;;16.30;99.90;;;;;;5014322;28;20754;-71
2022/08/27 00:03:46;;;;;;;3.53;1.03;;;16.70;99.90;;;;;;5013873;28;20190;-71
2022/08/27 00:06:15;;;;;;;5.13;1.10;;;17.30;99.90;;;;;;5013700;28;20176;-71
2022/08/27 00:08:44;;;;;;;3.50;1.00;;;18.20;99.90;;;;;;5011029;28;20173;-71
2022/08/27 00:11:12;;;;;;;4.33;0.80;;;19.10;99.90;;;;;;4996586;28;20325;-71
2022/08/27 00:13:40;;;;;;;1.40;0.87;;;19.30;99.90;;;;;;5013660;28;20715;-70
2022/08/27 00:16:10;;;;;;;3.37;1.10;;;19.20;99.90;;;;;;5013839;28;20174;-72
2022/08/27 00:18:38;;;;;;;1.90;0.90;;;18.80;99.90;;;;;;5014222;28;20179;-71
2022/08/27 00:21:06;;;;;;;3.53;1.17;;;18.60;99.90;;;;;;5013684;28;20174;-71
2022/08/27 00:23:35;;;;;;;3.83;0.90;;;18.30;99.90;;;;;;5013836;28;20288;-71
2022/08/27 00:26:04;;;;;;;3.03;0.80;;;18.20;99.90;;;;;;5014019;28;20305;-70
2022/08/27 00:28:32;;;;;;;3.97;0.80;;;18.20;99.90;;;;;;5013777;28;20552;-71
2022/08/27 00:31:00;;;;;;;2.23;0.83;;;18.10;99.90;;;;;;5013390;28;20185;-71
2022/08/27 00:33:29;;;;;;;4.47;0.97;;;18.30;99.90;;;;;;5013339;28;20217;-71
2022/08/27 00:35:56;;;;;;;1.30;0.80;;;18.40;99.90;;;;;;5014934;28;20626;-71
2022/08/27 00:38:24;;;;;;;3.80;0.97;;;18.50;99.90;;;;;;5016185;28;20267;-71
2022/08/27 00:40:52;;;;;;;1.30;0.80;;;18.50;99.90;;;;;;5012896;28;20182;-70
2022/08/27 00:43:41;;;;;;;0.80;0.53;;;18.30;99.90;;;;;;5013651;28;20289;-70
2022/08/27 00:46:23;;;;;;;1.47;0.80;;;18.10;99.90;;;;;;5013682;28;20269;-71
2022/08/27 00:48:54;;;;;;;2.77;1.00;;;18.20;99.90;;;;;;5013110;28;20264;-72
2022/08/27 00:51:23;;;;;;;0.90;0.73;;;18.40;99.90;;;;;;5013402;28;20643;-74
2022/08/27 00:53:53;;;;;;;4.70;0.70;;;18.50;99.90;;;;;;4996524;28;20654;-71
2022/08/27 00:56:32;;;;;;;3.23;1.03;;;18.10;99.90;;;;;;4986500;28;20193;-72
2022/08/27 00:59:02;;;;;;;4.30;0.60;;;17.80;99.90;;;;;;5013460;28;20187;-71
2022/08/27 01:02:17;;;;;;;1.00;0.60;;;17.80;99.90;;;;;;5013066;28;20663;-72
2022/08/27 01:04:22;;;;;;;4.53;1.00;;;17.80;99.90;;;;;;5013108;28;20204;-71
2022/08/27 01:06:50;;;;;;;2.43;0.73;;;17.90;99.90;;;;;;5012697;28;20192;-71
2022/08/27 01:09:29;;;;;;;2.20;0.67;;;18.00;99.90;;;;;;5012945;28;20272;-71
2022/08/27 01:11:58;;;;;;;1.87;0.70;;;18.30;99.90;;;;;;5012808;28;20232;-71
2022/08/27 01:14:27;;;;;;;3.60;0.90;;;18.90;99.90;;;;;;5013097;28;20730;-72
2022/08/27 01:16:56;;;;;;;3.43;0.83;;;19.80;99.90;;;;;;5012475;28;20178;-72
2022/08/27 01:19:57;;;;;;;1.50;0.57;;;21.10;99.90;;;;;;5013255;28;20648;-72
2022/08/27 01:22:55;;;;;;;1.33;0.40;;;22.00;99.90;;;;;;5007296;28;20240;-72
2022/08/27 01:25:23;;;;;;;2.23;0.47;;;22.30;99.90;;;;;;4994081;28;20227;-70
2022/08/27 01:27:52;;;;;;;3.00;0.60;;;21.90;99.90;;;;;;5012591;28;20680;-70
2022/08/27 01:30:22;;;;;;;2.80;0.50;;;21.60;99.90;;;;;;5012588;28;20185;-71
2022/08/27 01:32:50;;;;;;;1.53;0.60;;;21.50;99.90;;;;;;4994744;28;20220;-71
2022/08/27 01:35:21;;;;;;;1.27;0.43;;;21.40;99.90;;;;;;5012226;28;20554;-71
2022/08/27 01:37:50;;;;;;;1.53;0.60;;;21.10;99.90;;;;;;4991794;28;20183;-72
2022/08/27 01:40:18;;;;;;;3.33;0.70;;;21.30;99.90;;;;;;5006844;28;20188;-71
2022/08/27 01:42:49;;;;;;;2.33;0.60;;;21.90;99.90;;;;;;5011368;28;20188;-72
2022/08/27 01:45:24;;;;;;;2.83;0.57;;;21.80;99.90;;;;;;5012571;28;20192;-71
2022/08/27 01:47:54;;;;;;;2.10;0.70;;;21.80;99.90;;;;;;4999333;28;20197;-72
2022/08/27 01:50:27;;;;;;;2.10;0.70;;;22.30;99.90;;;;;;5012475;28;20185;-71
2022/08/27 01:52:56;;;;;;;2.17;0.80;;;22.30;99.90;;;;;;5012113;28;20243;-72
2022/08/27 01:55:25;;;;;;;1.30;0.50;;;22.30;99.90;;;;;;4994657;28;20203;-71
2022/08/27 01:57:56;;;;;;;4.80;0.90;;;22.20;99.90;;;;;;5012240;28;20192;-70
2022/08/27 02:00:30;;;;;;;1.80;0.70;;;21.80;99.90;;;;;;4994359;28;20239;-71
2022/08/27 02:02:59;;;;;;;1.57;0.50;;;22.00;99.90;;;;;;5011347;28;20640;-71
2022/08/27 02:05:29;;;;;;;1.30;0.60;;;22.20;99.90;;;;;;5012058;28;20209;-72
2022/08/27 02:07:58;;;;;;;1.97;0.80;;;23.00;99.90;;;;;;5012179;28;20181;-72
2022/08/27 02:10:32;;;;;;;1.80;0.47;;;23.20;99.90;;;;;;5011871;28;20188;-71
2022/08/27 02:13:05;;;;;;;2.27;0.60;;;22.20;99.90;;;;;;4993473;28;20240;-72
2022/08/27 02:15:36;;;;;;;3.57;1.20;;;22.20;99.90;;;;;;5011494;28;20273;-71
2022/08/27 02:18:05;;;;;;;2.83;0.93;;;22.40;99.90;;;;;;5011799;28;20666;-71
2022/08/27 02:20:34;;;;;;;1.57;0.77;;;22.60;99.90;;;;;;5012049;28;20190;-71
2022/08/27 02:23:01;;;;;;;2.23;0.70;;;21.40;99.90;;;;;;5011812;28;20231;-71
2022/08/27 02:25:29;;;;;;;3.13;0.80;;;20.50;99.90;;;;;;5011534;28;20185;-70
2022/08/27 02:27:58;;;;;;;4.20;1.60;;;19.90;99.90;;;;;;5011935;28;20182;-71
2022/08/27 02:30:28;;;;;;;6.73;4.33;;;19.20;99.90;;;;;;5011107;28;20186;-71
2022/08/27 02:32:56;;;;;;;3.00;1.40;;;18.90;99.90;;;;;;5011253;28;20221;-70
2022/08/27 02:35:24;;;;;;;3.47;1.30;;;18.50;99.90;;;;;;5011385;28;20196;-70
2022/08/27 02:37:52;;;;;;;3.10;1.00;;;18.20;99.90;;;;;;5011678;28;20650;-70
2022/08/27 02:40:22;;;;;;;2.57;0.83;;;17.90;99.90;;;;;;5011783;28;20801;-70
2022/08/27 02:42:50;;;;;;;3.57;1.03;;;17.70;99.90;;;;;;5011334;28;20682;-70
2022/08/27 02:45:21;;;;;;;2.77;0.80;;;17.50;99.90;;;;;;5011344;28;20285;-70
2022/08/27 02:47:48;;;;;;;2.30;0.90;;;17.20;99.90;;;;;;5008798;28;20265;-71
2022/08/27 02:50:17;;;;;;;2.20;0.60;;;17.00;99.90;;;;;;4994061;28;20181;-71
2022/08/27 02:52:44;;;;;;;2.10;0.50;;;16.90;99.90;;;;;;5011215;28;20298;-70
2022/08/27 02:55:13;;;;;;;3.67;0.80;;;16.90;99.90;;;;;;4993828;28;20185;-71
2022/08/27 02:57:41;;;;;;;1.30;0.80;;;16.90;99.90;;;;;;5011488;28;20292;-71
2022/08/27 03:00:11;;;;;;;1.90;0.70;;;17.10;99.90;;;;;;5011263;28;20550;-72
2022/08/27 03:02:39;;;;;;;4.33;1.10;;;17.10;99.90;;;;;;5011343;28;20591;-71
2022/08/27 03:05:11;;;;;;;1.87;0.83;;;17.20;99.90;;;;;;5011147;28;20216;-71
2022/08/27 03:07:39;;;;;;;4.10;1.03;;;17.30;99.90;;;;;;4996112;28;20231;-71
2022/08/27 03:10:08;;;;;;;2.13;1.10;;;17.40;99.90;;;;;;4993651;28;20198;-70
2022/08/27 03:12:36;;;;;;;2.03;1.17;;;17.50;99.90;;;;;;5010925;28;20230;-71
2022/08/27 03:15:10;;;;;;;4.17;1.27;;;17.50;99.90;;;;;;5011392;28;20190;-71
2022/08/27 03:20:24;;;;;;;7.33;1.40;;;17.50;99.90;;;;;;5011323;28;20181;-71
2022/08/27 03:22:52;;;;;;;3.10;1.47;;;17.70;99.90;;;;;;5011018;28;20244;-71
2022/08/27 03:25:20;;;;;;;2.33;0.87;;;17.70;99.90;;;;;;5010918;28;20733;-70
2022/08/27 03:27:48;;;;;;;1.43;0.83;;;17.80;99.90;;;;;;5011391;28;20178;-71
2022/08/27 03:30:18;;;;;;;3.00;1.10;;;18.20;99.90;;;;;;4992997;28;20205;-71
2022/08/27 03:32:46;;;;;;;1.80;1.00;;;18.70;99.90;;;;;;5010670;28;20296;-71
2022/08/27 03:35:14;;;;;;;3.73;0.80;;;19.40;99.90;;;;;;5010685;28;20194;-72
2022/08/27 03:37:42;;;;;;;2.33;0.70;;;20.40;99.90;;;;;;5011393;28;20330;-71
2022/08/27 03:40:10;;;;;;;3.23;0.70;;;20.80;99.90;;;;;;5011371;28;20265;-71
2022/08/27 03:42:38;;;;;;;1.90;0.77;;;20.80;99.90;;;;;;5010956;28;20182;-70
2022/08/27 03:45:07;;;;;;;2.33;0.60;;;20.40;99.90;;;;;;5010849;28;20194;-70
2022/08/27 03:47:35;;;;;;;1.03;0.50;;;19.90;99.90;;;;;;5010637;28;20189;-70
2022/08/27 03:50:04;;;;;;;2.30;0.70;;;19.50;99.90;;;;;;4995953;28;20663;-71
2022/08/27 03:52:34;;;;;;;1.93;0.60;;;19.10;99.90;;;;;;5014381;28;20232;-70
2022/08/27 03:55:03;;;;;;;1.30;0.60;;;18.80;99.90;;;;;;5014624;28;20183;-70
2022/08/27 03:57:31;;;;;;;1.20;0.57;;;19.10;99.90;;;;;;5013466;28;20185;-70
2022/08/27 04:00:00;;;;;;;1.53;0.60;;;19.80;99.90;;;;;;5014386;28;20186;-71
2022/08/27 04:02:28;;;;;;;3.23;0.60;;;19.90;99.90;;;;;;5014684;28;20178;-72
2022/08/27 04:04:58;;;;;;;2.10;0.47;;;19.60;99.90;;;;;;5014555;28;20269;-71
2022/08/27 04:07:26;;;;;;;2.30;0.50;;;19.50;99.90;;;;;;5013811;28;20186;-71
2022/08/27 04:09:53;;;;;;;3.10;0.70;;;19.40;99.90;;;;;;5014516;28;20185;-71
2022/08/27 04:12:21;;;;;;;2.80;0.90;;;19.50;99.90;;;;;;4996581;28;20260;-70
2022/08/27 04:14:48;;;;;;;1.37;0.60;;;19.60;99.90;;;;;;5014310;28;20312;-70
2022/08/27 04:17:16;;;;;;;0.80;0.43;;;19.70;99.90;;;;;;5013746;28;20193;-69
2022/08/27 04:19:43;;;;;;;4.67;0.60;;;19.70;99.90;;;;;;4996160;28;20647;-71
2022/08/27 04:22:11;;;;;;;1.03;0.57;;;19.50;99.90;;;;;;5013887;28;20190;-70
2022/08/27 04:24:39;;;;;;;1.33;0.77;;;19.40;99.90;;;;;;5014168;28;20198;-71
2022/08/27 04:27:07;;;;;;;0.73;0.40;;;19.70;99.90;;;;;;5014126;28;20186;-70
2022/08/27 04:29:35;;;;;;;6.57;1.20;;;20.10;99.90;;;;;;5013990;28;20184;-71
2022/08/27 04:32:04;;;;;;;2.07;0.50;;;20.80;99.90;;;;;;5014089;28;20224;-72
2022/08/27 04:34:32;;;;;;;1.03;0.80;;;20.60;99.90;;;;;;5013842;28;20178;-71
2022/08/27 04:37:00;;;;;;;1.77;0.80;;;20.10;99.90;;;;;;5013974;28;20613;-71
2022/08/27 04:39:29;;;;;;;3.03;0.63;;;19.70;99.90;;;;;;5013768;28;20203;-71
2022/08/27 04:42:00;;;;;;;2.27;0.80;;;19.30;99.90;;;;;;5013304;28;20221;-71
2022/08/27 04:44:30;;;;;;;1.40;0.70;;;18.90;99.90;;;;;;5014031;28;20173;-72
2022/08/27 04:47:02;;;;;;;1.40;0.63;;;18.40;99.90;;;;;;5013260;28;20604;-70
2022/08/27 04:49:30;;;;;;;1.87;0.70;;;18.10;99.90;;;;;;5013717;28;20191;-69
2022/08/27 04:51:58;;;;;;;3.43;0.80;;;17.70;99.90;;;;;;5013614;28;20255;-71
2022/08/27 04:54:25;;;;;;;1.77;0.80;;;17.50;99.90;;;;;;4995768;28;20190;-71
2022/08/27 04:56:53;;;;;;;1.23;0.70;;;17.30;99.90;;;;;;5012689;28;20185;-69
2022/08/27 04:59:20;;;;;;;1.10;0.73;;;17.30;99.90;;;;;;5013322;28;20185;-70
2022/08/27 05:01:48;;;;;;;2.07;1.03;;;17.10;99.90;;;;;;4995947;28;20256;-70
2022/08/27 05:04:18;;;;;;;2.67;0.90;;;17.10;99.90;;;;;;5013369;28;20201;-70
2022/08/27 05:06:49;;;;;;;6.90;1.40;;;17.00;99.90;;;;;;5012903;28;20182;-71
2022/08/27 05:09:17;;;;;;;1.70;0.93;;;17.00;99.90;;;;;;5013003;28;20194;-70
2022/08/27 05:11:45;;;;;;;0.70;0.70;;;17.10;99.90;;;;;;5013027;28;20313;-71
2022/08/27 05:14:15;;;;;;;2.43;0.77;;;17.10;99.90;;;;;;4995462;28;20641;-71
2022/08/27 05:16:42;;;;;;;0.97;0.60;;;17.00;99.90;;;;;;5013106;28;20171;-71
2022/08/27 05:19:13;;;;;;;1.23;0.73;;;17.10;99.90;;;;;;5012692;28;20188;-71
2022/08/27 05:21:46;;;;;;;1.17;0.70;;;17.10;99.90;;;;;;4995633;28;20608;-70
2022/08/27 05:24:15;;;;;;;1.93;0.93;;;17.20;99.90;;;;;;5013395;28;20212;-71
2022/08/27 05:26:43;;;;;;;2.50;0.80;;;17.20;99.90;;;;;;5012933;28;20714;-71
2022/08/27 05:29:11;;;;;;;1.27;0.80;;;17.20;99.90;;;;;;5012783;28;20196;-72
2022/08/27 05:31:39;;;;;;;0.75;0.65;;;17.20;99.90;;;;;;4995189;28;20209;-70
2022/08/27 05:34:08;;;;;;;1.10;0.70;;;17.30;99.90;;;;;;5012632;28;20183;-71
2022/08/27 05:36:36;;;;;;;2.50;1.03;;;17.30;99.90;;;;;;5012827;28;20205;-70
2022/08/27 05:39:05;;;;;;;1.43;0.90;;;17.40;99.90;;;;;;5012475;28;20190;-71
2022/08/27 05:41:33;;;;;;;3.37;0.90;;;17.30;99.90;;;;;;5012722;28;20174;-72
2022/08/27 05:44:08;;;;;;;1.63;0.80;;;17.20;99.90;;;;;;5012804;28;20175;-71
2022/08/27 05:46:37;;;;;;;4.20;1.00;;;17.20;99.90;;;;;;5012833;28;20170;-72
2022/08/27 05:49:05;;;;;;;2.10;1.00;;;17.10;99.90;;;;;;5012211;28;20301;-71
2022/08/27 05:51:35;;;;;;;3.50;1.00;;;17.10;99.90;;;;;;5012688;28;20200;-72
2022/08/27 05:54:06;;;;;;;2.23;1.20;;;17.30;99.90;;;;;;5012496;28;20281;-71
2022/08/27 05:56:36;;;;;;;3.37;1.03;;;17.60;99.90;;;;;;5012668;28;20730;-72
2022/08/27 06:01:53;;;;;;;1.73;0.80;;;18.20;99.90;;;;;;5012654;28;20200;-72
2022/08/27 06:04:22;;;;;;;1.90;0.73;;;18.20;99.90;;;;;;5012483;28;20181;-72
2022/08/27 06:06:51;;;;;;;2.67;0.70;;;18.00;99.90;;;;;;5012085;28;20178;-71
2022/08/27 06:09:21;;;;;;;4.50;1.10;;;17.90;99.90;;;;;;5011838;28;20190;-72
2022/08/27 06:11:49;;;;;;;2.13;0.80;;;17.70;99.90;;;;;;5011352;28;20718;-71
2022/08/27 06:14:16;;;;;;;3.03;1.00;;;17.50;99.90;;;;;;5012251;28;20189;-72
2022/08/27 06:16:46;;;;;;;1.53;0.80;;;17.30;99.90;;;;;;5012134;28;20173;-72
2022/08/27 06:19:15;;;;;;;0.97;0.80;;;17.20;99.90;;;;;;5012040;28;20662;-72
2022/08/27 06:21:45;;;;;;;1.83;0.90;;;17.10;99.90;;;;;;5011512;28;20185;-72
2022/08/27 06:24:13;;;;;;;2.30;1.23;;;17.20;99.90;;;;;;5011885;28;20543;-72
2022/08/27 06:26:43;;;;;;;1.63;0.90;;;17.10;99.90;;;;;;5011664;28;20663;-72
2022/08/27 06:29:13;;;;;;;1.93;0.70;;;17.20;99.90;;;;;;4994114;28;20557;-72
2022/08/27 06:31:41;;;;;;;1.87;0.97;;;17.30;99.90;;;;;;5011546;28;20196;-71
2022/08/27 06:34:09;;;;;;;2.73;1.03;;;17.40;99.90;;;;;;4994451;28;20281;-72
2022/08/27 06:36:41;;;;;;;1.23;0.80;;;17.40;99.90;;;;;;5011873;28;20183;-72
2022/08/27 06:39:14;;;;;;;2.33;1.10;;;17.40;99.90;;;;;;5012035;28;20655;-72
2022/08/27 06:41:43;;;;;;;6.60;1.20;;;17.30;99.90;;;;;;4994360;28;20515;-72
2022/08/27 06:44:10;;;;;;;4.20;1.07;;;17.10;99.90;;;;;;4994029;28;20196;-72
2022/08/27 06:46:38;;;;;;;1.50;0.97;;;17.00;99.90;;;;;;5011229;28;20297;-72
2022/08/27 06:49:06;;;;;;;1.40;0.87;;;16.90;99.90;;;;;;5011106;28;20186;-72
2022/08/27 06:51:36;;;;;;;2.50;0.70;;;16.80;99.90;;;;;;5011935;28;20186;-71
2022/08/27 06:54:07;;;;;;;3.37;0.90;;;16.80;99.90;;;;;;5011839;28;20248;-71
2022/08/27 06:56:35;;;;;;;2.40;0.87;;;16.70;99.90;;;;;;5011847;28;20182;-71
2022/08/27 06:59:06;;;;;;;3.83;0.80;;;16.60;99.90;;;;;;5011492;28;20659;-71
2022/08/27 07:01:44;;;;;;;2.40;0.80;;;16.50;99.90;;;;;;4994408;28;20232;-70
2022/08/27 07:04:16;;;;;;;5.30;1.20;;;16.50;99.90;;;;;;5011518;28;20184;-71
2022/08/27 07:06:43;;;;;;;2.00;0.97;;;16.50;99.90;;;;;;5011337;28;20269;-71
2022/08/27 07:09:11;;;;;;;1.70;1.00;;;16.40;99.90;;;;;;5011469;28;20213;-72
2022/08/27 07:11:38;;;;;;;2.93;1.33;;;16.30;99.90;;;;;;5011104;28;20230;-70
2022/08/27 07:14:07;;;;;;;2.33;1.00;;;16.20;99.90;;;;;;5011766;28;20559;-70
2022/08/27 07:16:35;;;;;;;7.10;1.47;;;16.10;99.90;;;;;;5011190;28;20648;-71
2022/08/27 07:19:05;;;;;;;2.13;1.30;;;16.00;99.90;;;;;;4993398;28;20202;-72
2022/08/27 07:21:34;;;;;;;2.53;1.10;;;15.90;99.90;;;;;;5011658;28;20174;-71
2022/08/27 07:24:04;;;;;;;4.17;1.40;;;15.80;99.90;;;;;;4994949;28;20178;-71
2022/08/27 07:26:34;;;;;;;2.87;1.20;;;15.70;99.90;;;;;;5014830;28;20196;-71
2022/08/27 07:29:03;;;;;;;2.27;0.90;;;15.60;99.90;;;;;;5015661;28;20554;-71
2022/08/27 07:31:31;;;;;;;6.83;1.13;;;15.40;99.90;;;;;;5011731;28;20247;-72
2022/08/27 07:33:58;;;;;;;5.07;1.37;;;15.30;99.90;;;;;;5013936;28;20537;-72
2022/08/27 07:36:25;;;;;;;3.80;0.90;;;15.20;99.90;;;;;;5014790;28;20628;-71
2022/08/27 07:38:53;;;;;;;2.00;0.90;;;15.10;99.90;;;;;;5015094;28;20598;-72
2022/08/27 07:41:20;;;;;;;1.57;0.77;;;14.90;99.90;;;;;;5014858;28;20241;-73
2022/08/27 07:46:33;;;;;;;3.37;1.13;;;14.70;99.90;;;;;;5014988;28;20220;-70
2022/08/27 07:49:00;;;;;;;4.33;1.50;;;14.70;99.90;;;;;;5014783;28;20558;-71
2022/08/27 07:51:31;;;;;;;2.53;1.50;;;14.50;99.90;;;;;;5014393;28;20196;-71
2022/08/27 07:53:59;;;;;;;1.90;1.13;;;14.40;99.90;;;;;;5013325;28;20308;-70
2022/08/27 07:56:28;;;;;;;2.80;1.20;;;14.40;99.90;;;;;;5014469;28;20240;-69
2022/08/27 07:58:55;;;;;;;2.53;1.27;;;14.20;99.90;;;;;;5014987;28;20188;-70
2022/08/27 08:01:22;;;;;;;2.57;1.37;;;14.20;99.90;;;;;;5014773;28;20184;-72
2022/08/27 08:03:50;;;;;;;2.63;1.70;;;14.20;99.90;;;;;;5014622;28;20252;-71
2022/08/27 08:06:18;;;;;;;2.17;1.40;;;14.10;99.90;;;;;;5014642;28;20284;-69
2022/08/27 08:08:45;;;;;;;2.20;1.40;;;14.00;99.90;;;;;;5014478;28;20186;-70
2022/08/27 08:11:15;;;;;;;2.70;1.73;;;13.90;99.90;;;;;;5014210;28;20234;-69
2022/08/27 08:13:44;;;;;;;2.53;1.73;;;13.80;99.90;;;;;;5014539;28;20589;-70
2022/08/27 08:16:11;;;;;;;6.07;1.77;;;13.70;99.90;;;;;;5014398;28;20178;-70
2022/08/27 08:18:39;;;;;;;2.50;1.60;;;13.70;99.90;;;;;;5014385;28;20185;-69
2022/08/27 08:21:10;;;;;;;4.17;2.07;;;13.50;99.90;;;;;;5014390;28;20182;-69
2022/08/27 08:23:38;;;;;;;8.67;2.23;;;13.50;99.90;;;;;;5014242;28;20182;-70
2022/08/27 08:26:07;;;;;;;4.33;1.80;;;13.40;99.90;;;;;;5014143;28;20174;-71
2022/08/27 08:28:35;;;;;;;2.10;1.83;;;13.40;99.90;;;;;;5014240;28;20235;-71
2022/08/27 08:31:03;;;;;;;5.17;2.03;;;13.30;99.90;;;;;;4996307;28;20207;-70
2022/08/27 08:33:31;;;;;;;4.67;3.00;;;13.30;99.90;;;;;;5017460;28;20228;-72
2022/08/27 08:36:11;;;;;;;7.93;2.40;;;13.30;99.90;;;;;;5033269;28;20207;-72
2022/08/27 08:38:39;;;;;;;6.97;3.23;;;13.30;99.90;;;;;;5014542;28;20202;-71
2022/08/27 08:41:22;;;;;;;5.43;3.00;;;13.20;99.90;;;;;;5013366;28;20190;-72
2022/08/27 08:43:50;;;;;;;6.33;3.60;;;13.10;99.90;;;;;;4996498;28;20254;-72
2022/08/27 08:46:41;;;;;;;6.40;3.60;;;13.10;99.90;;;;;;5013963;28;20184;-72
2022/08/27 08:49:44;;;;;;;5.73;3.47;;;13.00;99.90;;;;;;4996010;28;20199;-72
2022/08/27 08:52:24;;;;;;;7.33;3.80;;;12.90;99.90;;;;;;4996506;28;20314;-72
2022/08/27 08:54:53;;;;;;;7.47;3.77;;;12.80;99.90;;;;;;5013276;28;20189;-71
2022/08/27 08:57:27;;;;;;;8.37;4.10;;;12.80;99.90;;;;;;5013435;28;20265;-72
2022/08/27 09:00:06;;;;;;;8.67;3.87;;;12.70;99.90;;;;;;5013723;28;20183;-71
2022/08/27 09:02:36;;;;;;;5.53;3.67;;;12.60;99.90;;;;;;5012219;28;20213;-72
2022/08/27 09:05:06;;;;;;;6.37;3.47;;;12.60;99.90;;;;;;5013435;28;20185;-72
2022/08/27 09:08:03;;;;;;;6.60;3.73;;;12.60;99.90;;;;;;5013406;28;20529;-74
2022/08/27 09:10:57;;;;;;;8.53;4.13;;;12.50;99.90;;;;;;4993400;28;20204;-71
2022/08/27 09:13:33;;;;;;;7.47;3.40;;;12.40;99.90;;;;;;4993868;28;20250;-72
2022/08/27 09:16:04;;;;;;;7.07;3.27;;;12.40;99.90;;;;;;4990770;28;20595;-72
2022/08/27 09:18:34;;;;;;;8.73;3.87;;;12.40;99.90;;;;;;5013206;28;20196;-72
2022/08/27 09:21:19;;;;;;;5.23;3.23;;;12.30;99.90;;;;;;5013199;28;20186;-72
2022/08/27 09:24:14;;;;;;;6.80;3.63;;;12.30;99.90;;;;;;5013017;28;20258;-72
2022/08/27 09:26:43;;;;;;;5.60;3.57;;;12.20;99.90;;;;;;5012958;28;20594;-72
2022/08/27 09:29:20;;;;;;;6.47;3.80;;;12.20;99.90;;;;;;5012931;28;20596;-72
2022/08/27 09:32:09;;;;;;;7.80;4.03;;;12.20;99.90;;;;;;5012765;28;20595;-72
2022/08/27 09:34:40;;;;;;;10.70;4.27;;;12.10;99.90;;;;;;4994787;28;20189;-72
2022/08/27 09:37:28;;;;;;;6.83;4.10;;;12.10;99.90;;;;;;4995373;28;20193;-71
2022/08/27 09:40:23;;;;;;;6.20;3.80;;;12.10;99.90;;;;;;5013213;28;20177;-72
2022/08/27 09:43:17;;;;;;;6.90;4.03;;;12.10;99.90;;;;;;5012514;28;20270;-71
2022/08/27 09:45:54;;;;;;;6.43;3.97;;;12.00;99.90;;;;;;5002813;28;20233;-71
2022/08/27 09:48:29;;;;;;;8.37;4.23;;;11.90;99.90;;;;;;5014439;28;20298;-73
2022/08/27 09:51:06;;;;;;;9.60;4.97;;;11.80;99.90;;;;;;5014408;28;20183;-72
2022/08/27 09:53:37;;;;;;;8.20;4.63;;;11.80;99.90;;;;;;5014812;28;20214;-72
2022/08/27 09:56:08;;;;;;;8.07;4.83;;;11.80;99.90;;;;;;5013830;28;20188;-71
2022/08/27 09:59:09;;;;;;;11.17;6.30;;;11.80;99.90;;;;;;5013543;28;20190;-71
2022/08/27 10:01:59;;;;;;;9.47;5.83;;;11.80;99.90;;;;;;5014831;28;20192;-72
2022/08/27 10:04:53;;;;;;;10.43;5.83;;;11.80;99.90;;;;;;5014030;28;20536;-71
2022/08/27 10:07:39;;;;;;;10.13;5.77;;;11.90;99.90;;;;;;5013281;28;20203;-72
2022/08/27 10:10:21;;;;;;;8.23;4.67;;;11.80;99.90;;;;;;5013481;28;20191;-72
2022/08/27 10:13:17;;;;;;;6.73;5.00;;;11.90;99.90;;;;;;5013826;28;20235;-71
2022/08/27 10:16:01;;;;;;;7.90;5.10;;;11.90;99.90;;;;;;5011563;28;20279;-71
2022/08/27 10:18:45;;;;;;;9.00;5.10;;;11.90;99.90;;;;;;5013271;28;20547;-71
2022/08/27 10:21:44;;;;;;;8.93;6.30;;;11.90;99.90;;;;;;5013413;28;20230;-72
2022/08/27 10:24:32;;;;;;;8.23;5.97;;;11.90;99.90;;;;;;5013723;28;20182;-72
2022/08/27 10:27:22;;;;;;;9.73;6.03;;;12.00;99.90;;;;;;4995348;28;20188;-71
2022/08/27 10:30:06;;;;;;;7.87;5.30;;;12.00;99.90;;;;;;5011853;28;20195;-72
2022/08/27 10:33:13;;;;;;;9.73;5.80;;;12.10;99.90;;;;;;5013474;28;20214;-71
2022/08/27 10:36:06;;;;;;;11.93;5.50;;;12.20;99.90;;;;;;5012711;28;20183;-72
2022/08/27 10:38:43;;;;;;;9.07;5.97;;;12.20;99.90;;;;;;5013110;28;20559;-72
2022/08/27 10:41:44;;;;;;;11.83;7.17;;;12.30;99.90;;;;;;5013491;28;20548;-71
2022/08/27 10:44:46;;;;;;;9.73;6.10;;;12.30;99.90;;;;;;4980626;28;20247;-71
2022/08/27 10:47:30;;;;;;;13.57;6.73;;;12.30;99.90;;;;;;5012955;28;20191;-72
2022/08/27 10:50:31;;;;;;;9.03;6.77;;;12.30;99.90;;;;;;4993976;28;20178;-72
2022/08/27 10:53:08;;;;;;;11.87;8.10;;;12.30;99.90;;;;;;4993898;28;20690;-72
2022/08/27 10:55:41;;;;;;;13.37;7.47;;;12.20;99.90;;;;;;4994183;28;20211;-72
2022/08/27 10:58:18;;;;;;;12.73;7.10;;;12.20;99.90;;;;;;5005461;28;20266;-71
2022/08/27 11:01:02;;;;;;;13.50;7.60;;;12.10;99.90;;;;;;5017425;28;20184;-72
2022/08/27 11:03:54;;;;;;;10.53;7.80;;;12.10;99.90;;;;;;5016815;28;20275;-73
2022/08/27 11:06:57;;;;;;;11.60;7.63;;;12.10;99.90;;;;;;5017488;28;20177;-71
2022/08/27 11:10:00;;;;;;;12.33;7.17;;;12.10;99.90;;;;;;4937755;29;20200;-72
2022/08/27 11:12:45;;;;;;;10.20;7.10;;;12.00;99.90;;;;;;5002052;28;20239;-71
2022/08/27 11:15:37;;;;;;;11.13;7.53;;;12.00;99.90;;;;;;5000537;28;20267;-71
2022/08/27 11:18:16;;;;;;;11.43;7.23;;;11.90;99.90;;;;;;5016998;28;20231;-72
2022/08/27 11:20:53;;;;;;;10.33;7.40;;;11.90;99.90;;;;;;5017041;28;20654;-72
2022/08/27 11:23:29;;;;;;;10.13;7.30;;;11.80;99.90;;;;;;5017541;28;20197;-73
2022/08/27 11:26:03;;;;;;;9.53;6.57;;;11.80;99.90;;;;;;5016624;28;20642;-72
2022/08/27 11:28:38;;;;;;;10.33;7.50;;;11.70;99.90;;;;;;5016563;28;20264;-72
2022/08/27 11:31:21;;;;;;;14.53;7.70;;;11.70;99.90;;;;;;5016958;28;20643;-72
2022/08/27 11:34:04;;;;;;;11.43;6.87;;;11.70;99.90;;;;;;5016948;28;20219;-72
2022/08/27 11:36:50;;;;;;;12.20;7.77;;;11.70;99.90;;;;;;5016143;28;20176;-71
2022/08/27 11:39:57;;;;;;;8.87;6.60;;;11.60;99.90;;;;;;5016888;28;20549;-71
2022/08/27 11:42:37;;;;;;;9.03;6.87;;;11.50;99.90;;;;;;5017075;28;20679;-71
2022/08/27 11:45:15;;;;;;;7.87;6.57;;;11.40;99.90;;;;;;5016639;28;20657;-71
2022/08/27 11:48:02;;;;;;;12.60;7.37;;;11.30;99.90;;;;;;5016354;28;20174;-70
2022/08/27 11:50:32;;;;;;;11.80;7.63;;;11.30;99.90;;;;;;5016124;28;20264;-72
2022/08/27 11:53:08;;;;;;;9.53;7.17;;;11.20;99.90;;;;;;4999112;28;20204;-72
2022/08/27 11:55:38;;;;;;;12.23;6.80;;;11.20;99.90;;;;;;5016303;28;20174;-71
2022/08/27 11:58:23;;;;;;;8.90;6.70;;;11.20;99.90;;;;;;5015427;28;20196;-71
2022/08/27 12:00:54;;;;;;;10.97;6.90;;;11.20;99.90;;;;;;5016433;28;20188;-72
2022/08/27 12:03:27;;;;;;;11.13;6.27;;;11.30;99.90;;;;;;5015931;28;20178;-72
2022/08/27 12:05:55;;;;;;;9.43;6.60;;;11.30;99.90;;;;;;5016106;28;20187;-72
2022/08/27 12:08:23;;;;;;;9.60;6.03;;;11.20;99.90;;;;;;5015951;28;20185;-71
2022/08/27 12:11:11;;;;;;;8.03;6.10;;;11.30;99.90;;;;;;5015271;28;20205;-72
2022/08/27 12:14:00;;;;;;;8.57;6.07;;;11.30;99.90;;;;;;5016157;28;20218;-71
2022/08/27 12:16:57;;;;;;;9.47;6.87;;;11.30;99.90;;;;;;5015942;28;20228;-71
2022/08/27 12:19:37;;;;;;;10.73;6.60;;;11.40;99.90;;;;;;5016038;28;20174;-70
2022/08/27 12:22:22;;;;;;;12.40;6.83;;;11.40;99.90;;;;;;5015919;28;20233;-70
2022/08/27 12:24:56;;;;;;;10.10;6.43;;;11.40;99.90;;;;;;5015684;28;20269;-71
2022/08/27 12:27:37;;;;;;;8.33;6.40;;;11.50;99.90;;;;;;5015774;28;20323;-72
2022/08/27 12:30:23;;;;;;;9.80;6.93;;;11.50;99.90;;;;;;5016004;28;20202;-72
2022/08/27 12:32:53;;;;;;;12.93;6.73;;;11.60;99.90;;;;;;5015774;28;20236;-73
2022/08/27 12:35:28;;;;;;;12.67;6.87;;;11.60;99.90;;;;;;5015498;28;20179;-72
2022/08/27 12:38:01;;;;;;;10.73;7.20;;;11.60;99.90;;;;;;5015610;28;20233;-72
2022/08/27 12:40:42;;;;;;;9.87;7.33;;;11.70;99.90;;;;;;5015721;28;20287;-72
2022/08/27 12:43:17;;;;;;;13.40;7.60;;;11.60;99.90;;;;;;4998186;28;20188;-71
2022/08/27 12:45:51;;;;;;;9.80;7.27;;;11.60;99.90;;;;;;5015487;28;20556;-72
2022/08/27 12:48:24;;;;;;;9.73;7.30;;;11.50;99.90;;;;;;5014455;28;20185;-71
2022/08/27 12:50:55;;;;;;;9.80;7.13;;;11.50;99.90;;;;;;4997895;28;20217;-72
2022/08/27 12:53:42;;;;;;;12.70;8.20;;;11.40;99.90;;;;;;5015155;28;20246;-70
2022/08/27 12:56:28;;;;;;;12.40;7.60;;;11.40;99.90;;;;;;5015112;28;20270;-71
2022/08/27 12:59:12;;;;;;;9.27;7.07;;;11.40;99.90;;;;;;5015892;28;20182;-70
2022/08/27 13:02:18;;;;;;;11.17;7.67;;;11.50;99.90;;;;;;5014926;28;20187;-71
2022/08/27 13:04:46;;;;;;;10.33;7.47;;;11.50;99.90;;;;;;4935109;29;20247;-72
2022/08/27 13:07:26;;;;;;;12.10;8.20;;;11.60;99.90;;;;;;4935435;29;20194;-72
2022/08/27 13:09:54;;;;;;;10.73;7.07;;;11.60;99.90;;;;;;4982371;28;20215;-72
2022/08/27 13:12:25;;;;;;;11.13;7.93;;;11.70;99.90;;;;;;4997211;28;20984;-72
2022/08/27 13:14:52;;;;;;;12.90;9.63;;;11.70;99.90;;;;;;5014804;28;20192;-72
2022/08/27 13:17:22;;;;;;;11.00;7.70;;;11.70;99.90;;;;;;5013275;28;20286;-72
2022/08/27 13:20:00;;;;;;;9.90;8.07;;;11.80;99.90;;;;;;4997297;28;20186;-71
2022/08/27 13:22:40;;;;;;;11.93;7.83;;;11.70;99.90;;;;;;4997650;28;20321;-71
2022/08/27 13:25:32;;;;;;;13.83;7.30;;;11.70;99.90;;;;;;4997119;28;20187;-71
2022/08/27 13:28:14;;;;;;;11.20;7.87;;;11.70;99.90;;;;;;5014812;28;20574;-72